sensor_id;sensor_type;location;lat;lon;timestamp;pressure;altitude;pressure_sealevel;temperature;humidity
49315;BME280;36672;50.710;12.498;2023-02-28T00:01:30;99752.19;;;-2.89;77.50
49315;BME280;36672;50.710;12.498;2023-02-28T00:03:56;99746.13;;;-2.91;78.63
49315;BME280;36672;50.710;12.498;2023-02-28T00:06:21;99750.56;;;-2.92;78.28
49315;BME280;36672;50.710;12.498;2023-02-28T00:08:46;99746.22;;;-2.93;77.94
49315;BME280;36672;50.710;12.498;2023-02-28T00:11:12;99747.31;;;-2.97;77.91
49315;BME280;36672;50.710;12.498;2023-02-28T00:13:42;99748.44;;;-3.01;77.76
49315;BME280;36672;50.710;12.498;2023-02-28T00:16:08;99744.09;;;-3.02;78.38
49315;BME280;36672;50.710;12.498;2023-02-28T00:18:34;99753.78;;;-3.03;77.97
49315;BME280;36672;50.710;12.498;2023-02-28T00:20:59;99745.94;;;-3.04;78.58
49315;BME280;36672;50.710;12.498;2023-02-28T00:23:25;99746.88;;;-3.05;77.35
49315;BME280;36672;50.710;12.498;2023-02-28T00:25:51;99747.84;;;-3.06;78.29
49315;BME280;36672;50.710;12.498;2023-02-28T00:28:16;99746.13;;;-3.07;77.87
49315;BME280;36672;50.710;12.498;2023-02-28T00:30:42;99747.88;;;-3.08;78.14
49315;BME280;36672;50.710;12.498;2023-02-28T00:33:07;99750.81;;;-3.13;77.17
49315;BME280;36672;50.710;12.498;2023-02-28T00:35:32;99752.66;;;-3.15;77.58
49315;BME280;36672;50.710;12.498;2023-02-28T00:37:57;99747.56;;;-3.18;77.87
49315;BME280;36672;50.710;12.498;2023-02-28T00:40:23;99744.72;;;-3.15;78.39
49315;BME280;36672;50.710;12.498;2023-02-28T00:42:48;99743.72;;;-3.12;77.85
49315;BME280;36672;50.710;12.498;2023-02-28T00:45:13;99744.50;;;-3.10;78.23
49315;BME280;36672;50.710;12.498;2023-02-28T00:47:39;99743.38;;;-3.06;78.62
49315;BME280;36672;50.710;12.498;2023-02-28T00:50:04;99742.28;;;-3.02;78.41
49315;BME280;36672;50.710;12.498;2023-02-28T00:52:30;99737.69;;;-2.98;78.55
49315;BME280;36672;50.710;12.498;2023-02-28T00:54:55;99734.94;;;-2.97;78.60
49315;BME280;36672;50.710;12.498;2023-02-28T00:57:20;99741.44;;;-3.02;78.31
49315;BME280;36672;50.710;12.498;2023-02-28T00:59:45;99733.13;;;-3.12;77.45
49315;BME280;36672;50.710;12.498;2023-02-28T01:02:10;99731.50;;;-3.15;77.98
49315;BME280;36672;50.710;12.498;2023-02-28T01:04:36;99725.53;;;-3.18;77.72
49315;BME280;36672;50.710;12.498;2023-02-28T01:07:01;99730.06;;;-3.20;77.85
49315;BME280;36672;50.710;12.498;2023-02-28T01:09:26;99728.44;;;-3.23;77.38
49315;BME280;36672;50.710;12.498;2023-02-28T01:11:51;99725.94;;;-3.26;77.83
49315;BME280;36672;50.710;12.498;2023-02-28T01:14:17;99736.44;;;-3.24;78.16
49315;BME280;36672;50.710;12.498;2023-02-28T01:16:42;99731.31;;;-3.28;78.48
49315;BME280;36672;50.710;12.498;2023-02-28T01:19:08;99733.28;;;-3.31;77.42
49315;BME280;36672;50.710;12.498;2023-02-28T01:21:33;99729.94;;;-3.35;77.64
49315;BME280;36672;50.710;12.498;2023-02-28T01:24:00;99727.38;;;-3.36;77.84
49315;BME280;36672;50.710;12.498;2023-02-28T01:26:25;99724.91;;;-3.39;78.03
49315;BME280;36672;50.710;12.498;2023-02-28T01:28:51;99719.69;;;-3.41;77.90
49315;BME280;36672;50.710;12.498;2023-02-28T01:31:17;99722.50;;;-3.44;77.44
49315;BME280;36672;50.710;12.498;2023-02-28T01:33:43;99717.31;;;-3.46;77.49
49315;BME280;36672;50.710;12.498;2023-02-28T01:36:12;99725.22;;;-3.46;77.54
49315;BME280;36672;50.710;12.498;2023-02-28T01:38:37;99718.38;;;-3.50;77.50
49315;BME280;36672;50.710;12.498;2023-02-28T01:41:03;99713.09;;;-3.50;77.65
49315;BME280;36672;50.710;12.498;2023-02-28T01:43:29;99718.56;;;-3.53;77.76
49315;BME280;36672;50.710;12.498;2023-02-28T01:45:55;99717.16;;;-3.60;77.71
49315;BME280;36672;50.710;12.498;2023-02-28T01:48:23;99710.25;;;-3.63;77.46
49315;BME280;36672;50.710;12.498;2023-02-28T01:50:51;99711.13;;;-3.62;78.22
49315;BME280;36672;50.710;12.498;2023-02-28T01:53:18;99709.41;;;-3.63;77.39
49315;BME280;36672;50.710;12.498;2023-02-28T01:55:45;99713.91;;;-3.65;78.15
49315;BME280;36672;50.710;12.498;2023-02-28T01:58:11;99702.50;;;-3.66;77.73
49315;BME280;36672;50.710;12.498;2023-02-28T02:00:37;99704.28;;;-3.66;77.81
49315;BME280;36672;50.710;12.498;2023-02-28T02:03:07;99707.78;;;-3.66;78.67
49315;BME280;36672;50.710;12.498;2023-02-28T02:05:34;99703.25;;;-3.64;78.00
49315;BME280;36672;50.710;12.498;2023-02-28T02:08:02;99698.84;;;-3.63;78.51
49315;BME280;36672;50.710;12.498;2023-02-28T02:23:19;99693.69;;;-3.66;78.05
49315;BME280;36672;50.710;12.498;2023-02-28T02:33:38;99694.19;;;-3.75;78.80
49315;BME280;36672;50.710;12.498;2023-02-28T02:41:19;99699.47;;;-3.75;78.47
49315;BME280;36672;50.710;12.498;2023-02-28T02:43:56;99690.72;;;-3.76;78.71
49315;BME280;36672;50.710;12.498;2023-02-28T02:46:26;99685.44;;;-3.76;78.80
49315;BME280;36672;50.710;12.498;2023-02-28T02:48:54;99685.44;;;-3.76;78.45
49315;BME280;36672;50.710;12.498;2023-02-28T02:51:22;99686.09;;;-3.72;78.82
49315;BME280;36672;50.710;12.498;2023-02-28T02:53:59;99690.41;;;-3.70;78.89
49315;BME280;36672;50.710;12.498;2023-02-28T02:56:26;99690.31;;;-3.68;78.19
49315;BME280;36672;50.710;12.498;2023-02-28T02:58:53;99688.41;;;-3.66;78.33
49315;BME280;36672;50.710;12.498;2023-02-28T03:01:21;99691.84;;;-3.64;79.02
49315;BME280;36672;50.710;12.498;2023-02-28T03:03:53;99696.97;;;-3.61;79.24
49315;BME280;36672;50.710;12.498;2023-02-28T03:06:18;99696.03;;;-3.60;78.56
49315;BME280;36672;50.710;12.498;2023-02-28T03:08:44;99703.03;;;-3.59;78.84
49315;BME280;36672;50.710;12.498;2023-02-28T03:11:12;99697.03;;;-3.63;78.50
49315;BME280;36672;50.710;12.498;2023-02-28T03:23:45;99699.38;;;-3.56;78.80
49315;BME280;36672;50.710;12.498;2023-02-28T03:26:20;99697.50;;;-3.54;78.68
49315;BME280;36672;50.710;12.498;2023-02-28T03:29:04;99701.91;;;-3.55;78.91
49315;BME280;36672;50.710;12.498;2023-02-28T03:31:41;99696.63;;;-3.55;78.73
49315;BME280;36672;50.710;12.498;2023-02-28T03:34:15;99693.06;;;-3.54;78.58
49315;BME280;36672;50.710;12.498;2023-02-28T03:36:43;99698.25;;;-3.52;78.63
49315;BME280;36672;50.710;12.498;2023-02-28T03:39:13;99694.59;;;-3.50;79.00
49315;BME280;36672;50.710;12.498;2023-02-28T03:41:41;99697.34;;;-3.51;78.76
49315;BME280;36672;50.710;12.498;2023-02-28T03:44:15;99697.50;;;-3.54;78.25
49315;BME280;36672;50.710;12.498;2023-02-28T03:46:44;99693.94;;;-3.53;78.91
49315;BME280;36672;50.710;12.498;2023-02-28T03:49:22;99691.97;;;-3.50;78.72
49315;BME280;36672;50.710;12.498;2023-02-28T03:51:49;99695.22;;;-3.45;78.54
49315;BME280;36672;50.710;12.498;2023-02-28T03:54:17;99691.63;;;-3.44;78.83
49315;BME280;36672;50.710;12.498;2023-02-28T03:56:45;99691.50;;;-3.40;78.74
49315;BME280;36672;50.710;12.498;2023-02-28T03:59:18;99685.28;;;-3.39;78.31
49315;BME280;36672;50.710;12.498;2023-02-28T04:01:45;99688.84;;;-3.40;77.96
49315;BME280;36672;50.710;12.498;2023-02-28T04:04:12;99692.56;;;-3.45;77.92
49315;BME280;36672;50.710;12.498;2023-02-28T04:06:38;99697.00;;;-3.45;78.05
49315;BME280;36672;50.710;12.498;2023-02-28T04:09:06;99698.03;;;-3.48;78.03
49315;BME280;36672;50.710;12.498;2023-02-28T04:14:00;99700.56;;;-3.46;78.09
49315;BME280;36672;50.710;12.498;2023-02-28T04:16:26;99700.56;;;-3.46;78.42
49315;BME280;36672;50.710;12.498;2023-02-28T04:18:51;99694.38;;;-3.45;78.35
49315;BME280;36672;50.710;12.498;2023-02-28T04:21:16;99697.19;;;-3.48;78.01
49315;BME280;36672;50.710;12.498;2023-02-28T04:23:45;99691.03;;;-3.49;78.29
49315;BME280;36672;50.710;12.498;2023-02-28T04:26:10;99689.50;;;-3.53;78.11
49315;BME280;36672;50.710;12.498;2023-02-28T04:28:36;99695.78;;;-3.55;78.25
49315;BME280;36672;50.710;12.498;2023-02-28T04:31:02;99701.00;;;-3.54;78.66
49315;BME280;36672;50.710;12.498;2023-02-28T04:33:29;99699.13;;;-3.52;78.82
49315;BME280;36672;50.710;12.498;2023-02-28T04:35:58;99708.91;;;-3.54;78.86
49315;BME280;36672;50.710;12.498;2023-02-28T04:38:23;99698.34;;;-3.54;78.63
49315;BME280;36672;50.710;12.498;2023-02-28T04:40:48;99698.44;;;-3.55;78.80
49315;BME280;36672;50.710;12.498;2023-02-28T04:43:14;99701.91;;;-3.55;78.69
49315;BME280;36672;50.710;12.498;2023-02-28T04:45:39;99702.69;;;-3.53;79.40
49315;BME280;36672;50.710;12.498;2023-02-28T04:48:05;99708.91;;;-3.54;78.60
49315;BME280;36672;50.710;12.498;2023-02-28T04:50:30;99700.91;;;-3.52;79.42
49315;BME280;36672;50.710;12.498;2023-02-28T04:52:56;99703.41;;;-3.49;79.11
49315;BME280;36672;50.710;12.498;2023-02-28T04:55:21;99706.97;;;-3.50;78.99
49315;BME280;36672;50.710;12.498;2023-02-28T04:57:46;99717.63;;;-3.52;78.69
49315;BME280;36672;50.710;12.498;2023-02-28T05:00:12;99706.13;;;-3.51;79.26
49315;BME280;36672;50.710;12.498;2023-02-28T05:02:40;99708.78;;;-3.51;79.09
49315;BME280;36672;50.710;12.498;2023-02-28T05:05:05;99718.31;;;-3.48;79.19
49315;BME280;36672;50.710;12.498;2023-02-28T05:07:30;99716.59;;;-3.49;78.83
49315;BME280;36672;50.710;12.498;2023-02-28T05:09:56;99719.25;;;-3.49;79.31
49315;BME280;36672;50.710;12.498;2023-02-28T05:12:21;99717.38;;;-3.47;79.42
49315;BME280;36672;50.710;12.498;2023-02-28T05:14:46;99721.63;;;-3.45;79.50
49315;BME280;36672;50.710;12.498;2023-02-28T05:17:11;99718.06;;;-3.44;79.59
49315;BME280;36672;50.710;12.498;2023-02-28T05:19:36;99720.66;;;-3.42;79.70
49315;BME280;36672;50.710;12.498;2023-02-28T05:22:02;99723.34;;;-3.44;78.98
49315;BME280;36672;50.710;12.498;2023-02-28T05:24:27;99721.56;;;-3.43;79.66
49315;BME280;36672;50.710;12.498;2023-02-28T05:26:53;99724.13;;;-3.41;79.08
49315;BME280;36672;50.710;12.498;2023-02-28T05:29:18;99728.56;;;-3.42;79.08
49315;BME280;36672;50.710;12.498;2023-02-28T05:31:44;99726.00;;;-3.44;79.59
49315;BME280;36672;50.710;12.498;2023-02-28T05:34:09;99723.44;;;-3.45;79.28
49315;BME280;36672;50.710;12.498;2023-02-28T05:36:37;99731.53;;;-3.48;79.04
49315;BME280;36672;50.710;12.498;2023-02-28T05:39:03;99735.34;;;-3.54;79.23
49315;BME280;36672;50.710;12.498;2023-02-28T05:41:29;99737.38;;;-3.59;78.44
49315;BME280;36672;50.710;12.498;2023-02-28T05:43:55;99734.91;;;-3.62;78.86
49315;BME280;36672;50.710;12.498;2023-02-28T05:46:20;99733.19;;;-3.63;79.12
49315;BME280;36672;50.710;12.498;2023-02-28T05:48:46;99739.47;;;-3.66;79.39
49315;BME280;36672;50.710;12.498;2023-02-28T05:51:11;99744.06;;;-3.69;79.06
49315;BME280;36672;50.710;12.498;2023-02-28T05:53:37;99751.97;;;-3.69;79.19
49315;BME280;36672;50.710;12.498;2023-02-28T05:56:02;99746.69;;;-3.69;79.26
49315;BME280;36672;50.710;12.498;2023-02-28T05:58:27;99749.47;;;-3.72;79.30
49315;BME280;36672;50.710;12.498;2023-02-28T06:00:56;99752.22;;;-3.74;79.01
49315;BME280;36672;50.710;12.498;2023-02-28T06:03:24;99754.94;;;-3.75;79.32
49315;BME280;36672;50.710;12.498;2023-02-28T06:05:50;99747.94;;;-3.77;79.17
49315;BME280;36672;50.710;12.498;2023-02-28T06:08:15;99743.66;;;-3.79;78.90
49315;BME280;36672;50.710;12.498;2023-02-28T06:10:40;99746.16;;;-3.76;79.71
49315;BME280;36672;50.710;12.498;2023-02-28T06:13:06;99750.56;;;-3.77;79.81
49315;BME280;36672;50.710;12.498;2023-02-28T06:15:31;99752.22;;;-3.74;79.49
49315;BME280;36672;50.710;12.498;2023-02-28T06:17:56;99759.06;;;-3.70;79.03
49315;BME280;36672;50.710;12.498;2023-02-28T06:20:22;99752.50;;;-3.63;79.47
49315;BME280;36672;50.710;12.498;2023-02-28T06:22:48;99755.72;;;-3.56;79.83
49315;BME280;36672;50.710;12.498;2023-02-28T06:25:15;99761.44;;;-3.48;79.55
49315;BME280;36672;50.710;12.498;2023-02-28T06:27:40;99760.63;;;-3.32;79.63
49315;BME280;36672;50.710;12.498;2023-02-28T06:30:06;99765.72;;;-3.12;79.31
49315;BME280;36672;50.710;12.498;2023-02-28T06:32:31;99770.78;;;-2.91;79.16
49315;BME280;36672;50.710;12.498;2023-02-28T06:34:57;99776.00;;;-2.57;79.33
49315;BME280;36672;50.710;12.498;2023-02-28T06:37:25;99770.19;;;-2.32;77.68
49315;BME280;36672;50.710;12.498;2023-02-28T06:39:51;99774.22;;;-2.25;77.02
49315;BME280;36672;50.710;12.498;2023-02-28T06:42:16;99780.88;;;-2.18;75.84
49315;BME280;36672;50.710;12.498;2023-02-28T06:44:42;99793.53;;;-2.23;75.79
49315;BME280;36672;50.710;12.498;2023-02-28T06:47:08;99796.53;;;-2.29;75.50
49315;BME280;36672;50.710;12.498;2023-02-28T06:49:34;99793.88;;;-2.29;75.14
49315;BME280;36672;50.710;12.498;2023-02-28T06:52:00;99799.31;;;-2.32;75.20
49315;BME280;36672;50.710;12.498;2023-02-28T06:54:25;99798.56;;;-2.34;74.42
49315;BME280;36672;50.710;12.498;2023-02-28T06:56:51;99799.41;;;-2.34;74.79
49315;BME280;36672;50.710;12.498;2023-02-28T06:59:16;99797.69;;;-2.35;74.07
49315;BME280;36672;50.710;12.498;2023-02-28T07:01:42;99805.72;;;-2.36;74.31
49315;BME280;36672;50.710;12.498;2023-02-28T07:04:07;99808.13;;;-2.32;74.69
49315;BME280;36672;50.710;12.498;2023-02-28T07:06:32;99809.75;;;-2.29;74.00
49315;BME280;36672;50.710;12.498;2023-02-28T07:08:58;99807.50;;;-2.21;74.33
49315;BME280;36672;50.710;12.498;2023-02-28T07:11:24;99810.16;;;-2.05;74.61
49315;BME280;36672;50.710;12.498;2023-02-28T07:13:53;99813.28;;;-1.82;74.40
49315;BME280;36672;50.710;12.498;2023-02-28T07:16:18;99820.81;;;-1.60;74.16
49315;BME280;36672;50.710;12.498;2023-02-28T07:18:44;99815.00;;;-1.36;72.71
49315;BME280;36672;50.710;12.498;2023-02-28T07:21:09;99809.56;;;-0.75;74.44
49315;BME280;36672;50.710;12.498;2023-02-28T07:23:35;99804.94;;;1.17;71.35
49315;BME280;36672;50.710;12.498;2023-02-28T07:26:00;99797.59;;;3.58;63.55
49315;BME280;36672;50.710;12.498;2023-02-28T07:28:26;99797.34;;;5.53;53.76
49315;BME280;36672;50.710;12.498;2023-02-28T07:30:51;99787.63;;;7.28;52.89
49315;BME280;36672;50.710;12.498;2023-02-28T07:33:16;99794.34;;;8.70;48.67
49315;BME280;36672;50.710;12.498;2023-02-28T07:35:41;99787.91;;;9.85;46.57
49315;BME280;36672;50.710;12.498;2023-02-28T07:38:07;99780.44;;;10.79;45.90
49315;BME280;36672;50.710;12.498;2023-02-28T07:40:33;99788.09;;;11.48;39.15
49315;BME280;36672;50.710;12.498;2023-02-28T07:42:58;99784.50;;;12.27;42.88
49315;BME280;36672;50.710;12.498;2023-02-28T07:45:24;99776.13;;;12.98;40.90
49315;BME280;36672;50.710;12.498;2023-02-28T07:47:49;99775.88;;;13.83;40.14
49315;BME280;36672;50.710;12.498;2023-02-28T07:50:15;99777.06;;;14.54;37.56
49315;BME280;36672;50.710;12.498;2023-02-28T07:52:41;99783.22;;;15.41;38.85
49315;BME280;36672;50.710;12.498;2023-02-28T07:55:07;99786.69;;;16.05;35.04
49315;BME280;36672;50.710;12.498;2023-02-28T07:57:32;99780.56;;;16.98;34.04
49315;BME280;36672;50.710;12.498;2023-02-28T07:59:57;99776.53;;;17.27;31.96
49315;BME280;36672;50.710;12.498;2023-02-28T08:02:23;99776.97;;;17.11;27.98
49315;BME280;36672;50.710;12.498;2023-02-28T08:04:48;99786.91;;;16.10;30.49
49315;BME280;36672;50.710;12.498;2023-02-28T08:07:14;99785.28;;;15.80;32.84
49315;BME280;36672;50.710;12.498;2023-02-28T08:09:40;99783.34;;;16.09;30.82
49315;BME280;36672;50.710;12.498;2023-02-28T08:12:05;99770.41;;;16.45;29.42
49315;BME280;36672;50.710;12.498;2023-02-28T08:14:31;99781.72;;;16.22;29.68
49315;BME280;36672;50.710;12.498;2023-02-28T08:16:56;99778.56;;;15.35;29.50
49315;BME280;36672;50.710;12.498;2023-02-28T08:19:21;99782.69;;;15.24;31.01
49315;BME280;36672;50.710;12.498;2023-02-28T08:21:46;99778.91;;;15.53;30.59
49315;BME280;36672;50.710;12.498;2023-02-28T08:24:11;99783.47;;;14.46;29.52
49315;BME280;36672;50.710;12.498;2023-02-28T08:26:37;99778.34;;;14.36;30.49
49315;BME280;36672;50.710;12.498;2023-02-28T08:29:02;99779.84;;;15.04;33.14
49315;BME280;36672;50.710;12.498;2023-02-28T08:31:27;99782.56;;;15.74;27.75
49315;BME280;36672;50.710;12.498;2023-02-28T08:33:52;99785.94;;;15.76;29.10
49315;BME280;36672;50.710;12.498;2023-02-28T08:36:19;99786.72;;;15.70;28.67
49315;BME280;36672;50.710;12.498;2023-02-28T08:38:45;99786.84;;;15.55;30.15
49315;BME280;36672;50.710;12.498;2023-02-28T08:41:11;99786.69;;;15.63;29.25
49315;BME280;36672;50.710;12.498;2023-02-28T08:43:37;99781.47;;;15.68;29.95
49315;BME280;36672;50.710;12.498;2023-02-28T08:46:02;99791.00;;;15.15;28.50
49315;BME280;36672;50.710;12.498;2023-02-28T08:48:29;99793.44;;;14.82;28.70
49315;BME280;36672;50.710;12.498;2023-02-28T08:50:58;99803.09;;;14.41;31.61
49315;BME280;36672;50.710;12.498;2023-02-28T08:53:24;99800.22;;;13.16;31.20
49315;BME280;36672;50.710;12.498;2023-02-28T08:55:59;99803.34;;;12.20;31.95
49315;BME280;36672;50.710;12.498;2023-02-28T08:58:25;99808.91;;;11.96;33.41
49315;BME280;36672;50.710;12.498;2023-02-28T09:00:50;99807.59;;;12.46;32.80
49315;BME280;36672;50.710;12.498;2023-02-28T09:03:15;99803.16;;;13.60;31.75
49315;BME280;36672;50.710;12.498;2023-02-28T09:05:42;99811.19;;;14.99;29.71
49315;BME280;36672;50.710;12.498;2023-02-28T09:08:16;99806.97;;;16.57;27.84
49315;BME280;36672;50.710;12.498;2023-02-28T09:10:41;99801.97;;;17.15;26.95
49315;BME280;36672;50.710;12.498;2023-02-28T09:13:06;99795.28;;;17.04;27.13
49315;BME280;36672;50.710;12.498;2023-02-28T09:15:31;99798.69;;;16.24;27.32
49315;BME280;36672;50.710;12.498;2023-02-28T09:17:57;99793.19;;;13.97;28.84
49315;BME280;36672;50.710;12.498;2023-02-28T09:20:22;99804.09;;;12.61;30.73
49315;BME280;36672;50.710;12.498;2023-02-28T09:22:47;99806.97;;;11.00;31.52
49315;BME280;36672;50.710;12.498;2023-02-28T09:25:13;99810.19;;;10.63;32.96
49315;BME280;36672;50.710;12.498;2023-02-28T09:27:38;99809.09;;;11.86;31.20
49315;BME280;36672;50.710;12.498;2023-02-28T09:30:04;99802.03;;;13.69;31.81
49315;BME280;36672;50.710;12.498;2023-02-28T09:32:29;99800.56;;;15.33;28.80
49315;BME280;36672;50.710;12.498;2023-02-28T09:34:54;99792.63;;;16.22;28.16
49315;BME280;36672;50.710;12.498;2023-02-28T09:37:19;99794.63;;;17.02;25.98
49315;BME280;36672;50.710;12.498;2023-02-28T09:39:45;99793.56;;;18.02;25.76
49315;BME280;36672;50.710;12.498;2023-02-28T09:42:17;99796.69;;;18.51;23.89
49315;BME280;36672;50.710;12.498;2023-02-28T09:44:44;99792.69;;;18.79;24.16
49315;BME280;36672;50.710;12.498;2023-02-28T09:47:18;99794.69;;;19.59;24.06
49315;BME280;36672;50.710;12.498;2023-02-28T09:49:47;99789.19;;;20.33;23.17
49315;BME280;36672;50.710;12.498;2023-02-28T09:52:19;99792.31;;;20.49;24.03
49315;BME280;36672;50.710;12.498;2023-02-28T09:54:45;99794.81;;;19.71;23.08
49315;BME280;36672;50.710;12.498;2023-02-28T09:59:46;99794.16;;;14.47;27.40
49315;BME280;36672;50.710;12.498;2023-02-28T10:10:42;99795.75;;;13.83;29.42
49315;BME280;36672;50.710;12.498;2023-02-28T10:13:00;99792.28;;;13.90;28.25
49315;BME280;36672;50.710;12.498;2023-02-28T10:15:28;99800.16;;;12.86;28.21
49315;BME280;36672;50.710;12.498;2023-02-28T10:17:57;99800.13;;;11.37;29.89
49315;BME280;36672;50.710;12.498;2023-02-28T10:20:23;99800.19;;;10.30;31.75
49315;BME280;36672;50.710;12.498;2023-02-28T10:23:16;99800.19;;;9.79;32.71
49315;BME280;36672;50.710;12.498;2023-02-28T10:25:45;99786.34;;;9.66;33.56
49315;BME280;36672;50.710;12.498;2023-02-28T10:28:14;99790.66;;;10.09;33.00
49315;BME280;36672;50.710;12.498;2023-02-28T10:30:43;99787.38;;;10.82;32.05
49315;BME280;36672;50.710;12.498;2023-02-28T10:33:15;99789.59;;;10.95;30.87
49315;BME280;36672;50.710;12.498;2023-02-28T10:35:43;99794.41;;;10.17;31.60
49315;BME280;36672;50.710;12.498;2023-02-28T10:38:11;99791.00;;;9.21;33.09
49315;BME280;36672;50.710;12.498;2023-02-28T10:40:39;99795.97;;;8.45;34.53
49315;BME280;36672;50.710;12.498;2023-02-28T10:43:05;99783.06;;;8.67;35.47
49315;BME280;36672;50.710;12.498;2023-02-28T10:45:34;99787.94;;;9.16;34.09
49315;BME280;36672;50.710;12.498;2023-02-28T10:51:14;99791.59;;;9.75;32.70
49315;BME280;36672;50.710;12.498;2023-02-28T11:01:13;99793.38;;;6.86;37.08
49315;BME280;36672;50.710;12.498;2023-02-28T11:03:39;99783.19;;;6.80;36.92
49315;BME280;36672;50.710;12.498;2023-02-28T11:06:05;99770.50;;;6.62;37.39
49315;BME280;36672;50.710;12.498;2023-02-28T11:08:31;99771.47;;;6.71;37.95
49315;BME280;36672;50.710;12.498;2023-02-28T11:10:58;99769.09;;;6.68;37.88
49315;BME280;36672;50.710;12.498;2023-02-28T11:13:25;99772.63;;;6.68;37.49
49315;BME280;36672;50.710;12.498;2023-02-28T11:15:55;99782.22;;;6.81;38.34
49315;BME280;36672;50.710;12.498;2023-02-28T11:18:22;99768.84;;;6.61;38.15
49315;BME280;36672;50.710;12.498;2023-02-28T11:20:50;99774.63;;;6.37;38.00
49315;BME280;36672;50.710;12.498;2023-02-28T11:23:15;99775.09;;;6.99;38.16
49315;BME280;36672;50.710;12.498;2023-02-28T11:25:46;99764.91;;;7.68;37.06
49315;BME280;36672;50.710;12.498;2023-02-28T11:33:28;99762.50;;;7.00;37.77
49315;BME280;36672;50.710;12.498;2023-02-28T11:35:55;99748.50;;;7.44;37.83
49315;BME280;36672;50.710;12.498;2023-02-28T11:38:23;99757.44;;;8.08;37.02
49315;BME280;36672;50.710;12.498;2023-02-28T11:48:25;99736.72;;;8.45;35.97
49315;BME280;36672;50.710;12.498;2023-02-28T11:50:54;99738.63;;;8.35;35.52
49315;BME280;36672;50.710;12.498;2023-02-28T11:55:56;99735.72;;;7.18;38.16
49315;BME280;36672;50.710;12.498;2023-02-28T12:01:20;99738.41;;;6.80;39.45
49315;BME280;36672;50.710;12.498;2023-02-28T12:03:58;99743.69;;;7.10;39.28
49315;BME280;36672;50.710;12.498;2023-02-28T12:06:31;99736.94;;;7.79;38.38
49315;BME280;36672;50.710;12.498;2023-02-28T12:09:20;99738.97;;;8.31;35.83
49315;BME280;36672;50.710;12.498;2023-02-28T12:12:04;99736.06;;;8.25;35.90
49315;BME280;36672;50.710;12.498;2023-02-28T12:17:20;99733.91;;;8.99;36.38
49315;BME280;36672;50.710;12.498;2023-02-28T12:27:26;99730.41;;;9.07;35.26
49315;BME280;36672;50.710;12.498;2023-02-28T12:30:35;99737.41;;;9.69;34.58
49315;BME280;36672;50.710;12.498;2023-02-28T12:33:06;99727.53;;;9.94;34.12
49315;BME280;36672;50.710;12.498;2023-02-28T12:35:32;99727.34;;;9.02;35.31
49315;BME280;36672;50.710;12.498;2023-02-28T12:38:12;99726.84;;;8.72;36.04
49315;BME280;36672;50.710;12.498;2023-02-28T12:40:48;99726.06;;;9.14;36.33
49315;BME280;36672;50.710;12.498;2023-02-28T12:43:16;99721.69;;;9.48;35.83
49315;BME280;36672;50.710;12.498;2023-02-28T12:45:50;99728.56;;;9.42;34.53
49315;BME280;36672;50.710;12.498;2023-02-28T12:48:21;99720.94;;;9.29;35.91
49315;BME280;36672;50.710;12.498;2023-02-28T12:50:49;99716.78;;;9.43;35.69
49315;BME280;36672;50.710;12.498;2023-02-28T12:56:14;99711.34;;;9.94;34.48
49315;BME280;36672;50.710;12.498;2023-02-28T12:58:33;99713.56;;;10.15;34.90
49315;BME280;36672;50.710;12.498;2023-02-28T13:01:08;99705.63;;;10.22;35.30
49315;BME280;36672;50.710;12.498;2023-02-28T13:14:03;99704.69;;;9.55;35.58
49315;BME280;36672;50.710;12.498;2023-02-28T13:16:46;99707.19;;;9.06;36.69
49315;BME280;36672;50.710;12.498;2023-02-28T13:19:16;99707.28;;;8.96;37.10
49315;BME280;36672;50.710;12.498;2023-02-28T13:21:43;99697.28;;;9.14;36.39
49315;BME280;36672;50.710;12.498;2023-02-28T13:24:09;99698.88;;;8.99;37.23
49315;BME280;36672;50.710;12.498;2023-02-28T13:29:02;99690.66;;;8.74;37.25
49315;BME280;36672;50.710;12.498;2023-02-28T13:31:29;99705.59;;;8.69;37.37
49315;BME280;36672;50.710;12.498;2023-02-28T13:36:23;99706.09;;;8.46;37.60
49315;BME280;36672;50.710;12.498;2023-02-28T13:43:59;99707.44;;;7.42;39.45
49315;BME280;36672;50.710;12.498;2023-02-28T13:46:25;99705.03;;;6.83;39.16
49315;BME280;36672;50.710;12.498;2023-02-28T13:48:50;99711.47;;;6.43;40.04
49315;BME280;36672;50.710;12.498;2023-02-28T13:51:34;99703.94;;;6.56;41.36
49315;BME280;36672;50.710;12.498;2023-02-28T13:54:07;99703.41;;;6.90;40.41
49315;BME280;36672;50.710;12.498;2023-02-28T13:57:04;99708.00;;;7.17;39.59
49315;BME280;36672;50.710;12.498;2023-02-28T13:59:29;99689.53;;;7.32;39.30
49315;BME280;36672;50.710;12.498;2023-02-28T14:05:05;99696.44;;;6.69;40.84
49315;BME280;36672;50.710;12.498;2023-02-28T14:07:33;99692.63;;;7.10;40.15
49315;BME280;36672;50.710;12.498;2023-02-28T14:10:06;99694.63;;;6.98;39.94
49315;BME280;36672;50.710;12.498;2023-02-28T14:17:52;99678.66;;;6.96;40.27
49315;BME280;36672;50.710;12.498;2023-02-28T14:20:18;99687.63;;;6.87;40.71
49315;BME280;36672;50.710;12.498;2023-02-28T14:28:06;99685.28;;;6.64;41.08
49315;BME280;36672;50.710;12.498;2023-02-28T14:33:38;99680.31;;;6.69;40.39
49315;BME280;36672;50.710;12.498;2023-02-28T14:38:29;99673.47;;;6.38;40.72
49315;BME280;36672;50.710;12.498;2023-02-28T14:40:56;99664.69;;;6.45;41.97
49315;BME280;36672;50.710;12.498;2023-02-28T14:43:25;99664.38;;;6.58;41.46
49315;BME280;36672;50.710;12.498;2023-02-28T14:45:52;99663.19;;;6.80;41.59
49315;BME280;36672;50.710;12.498;2023-02-28T14:48:18;99670.09;;;6.83;40.66
49315;BME280;36672;50.710;12.498;2023-02-28T14:50:48;99668.19;;;6.65;39.68
49315;BME280;36672;50.710;12.498;2023-02-28T14:53:17;99658.91;;;6.50;40.44
49315;BME280;36672;50.710;12.498;2023-02-28T14:55:44;99663.47;;;6.20;40.55
49315;BME280;36672;50.710;12.498;2023-02-28T15:01:05;99671.34;;;5.63;42.32
49315;BME280;36672;50.710;12.498;2023-02-28T15:03:34;99661.59;;;5.52;42.65
49315;BME280;36672;50.710;12.498;2023-02-28T15:06:21;99659.91;;;5.51;43.04
49315;BME280;36672;50.710;12.498;2023-02-28T15:08:45;99652.69;;;5.42;43.06